createdAt,value
2024-01-16T00:01:23.387Z,88.50
2024-01-16T00:03:51.166Z,89.10
2024-01-16T00:06:18.443Z,89.60
2024-01-16T00:08:46.184Z,89.00
2024-01-16T00:11:13.483Z,81.10
2024-01-16T00:13:40.686Z,71.20
2024-01-16T00:16:07.844Z,70.10
2024-01-16T00:18:36.348Z,70.70
2024-01-16T00:21:04.203Z,73.10
2024-01-16T00:23:33.716Z,74.40
2024-01-16T00:26:01.346Z,75.60
2024-01-16T00:28:29.115Z,76.50
2024-01-16T00:30:56.434Z,76.40
2024-01-16T00:33:23.740Z,78.30
2024-01-16T00:35:51.335Z,81.60
2024-01-16T00:38:21.821Z,84.40
2024-01-16T00:40:49.284Z,84.90
2024-01-16T00:43:16.999Z,85.20
2024-01-16T00:45:44.391Z,85.80
2024-01-16T00:48:14.849Z,87.10
2024-01-16T00:50:42.839Z,87.80
2024-01-16T00:53:10.081Z,88.90
2024-01-16T00:55:39.852Z,89.70
2024-01-16T00:58:07.127Z,90.00
2024-01-16T01:00:36.459Z,90.00
2024-01-16T01:03:05.055Z,91.10
2024-01-16T01:05:32.513Z,91.90
2024-01-16T01:08:00.117Z,92.70
2024-01-16T01:10:27.372Z,93.90
2024-01-16T01:12:54.749Z,94.60
2024-01-16T01:15:22.470Z,95.00
2024-01-16T01:17:53.367Z,95.30
2024-01-16T01:20:21.149Z,95.40
2024-01-16T01:22:48.842Z,94.90
2024-01-16T01:25:16.424Z,94.50
2024-01-16T01:27:43.871Z,94.50
2024-01-16T01:30:12.705Z,94.40
2024-01-16T01:32:41.045Z,94.90
2024-01-16T01:35:10.956Z,94.90
2024-01-16T01:37:40.785Z,95.30
2024-01-16T01:40:09.344Z,93.50
2024-01-16T01:42:36.612Z,90.20
2024-01-16T01:45:04.474Z,89.30
2024-01-16T01:47:34.808Z,87.60
2024-01-16T01:50:04.888Z,87.20
2024-01-16T01:52:33.401Z,87.50
2024-01-16T01:55:04.280Z,87.80
2024-01-16T01:57:31.672Z,87.00
2024-01-16T01:59:58.912Z,86.50
2024-01-16T02:02:29.367Z,86.50
2024-01-16T02:04:57.490Z,85.90
2024-01-16T02:07:24.916Z,86.50
2024-01-16T02:09:52.411Z,86.80
2024-01-16T02:12:21.208Z,87.20
2024-01-16T02:14:49.657Z,86.80
2024-01-16T02:17:16.834Z,86.00
2024-01-16T02:19:44.057Z,85.40
2024-01-16T02:22:17.673Z,85.90
2024-01-16T02:24:45.354Z,84.90
2024-01-16T02:27:12.621Z,84.80
2024-01-16T02:29:46.652Z,84.40
2024-01-16T02:32:15.783Z,84.70
2024-01-16T02:34:43.187Z,84.70
2024-01-16T02:37:10.437Z,85.10
2024-01-16T02:39:38.163Z,85.40
2024-01-16T02:42:06.041Z,85.60
2024-01-16T02:44:34.069Z,85.50
2024-01-16T02:47:01.787Z,85.60
2024-01-16T02:49:29.693Z,85.90
2024-01-16T02:51:58.381Z,86.10
2024-01-16T02:54:25.941Z,86.40
2024-01-16T02:56:53.934Z,86.50
2024-01-16T02:59:21.239Z,86.30
2024-01-16T03:01:48.929Z,86.00
2024-01-16T03:04:17.194Z,85.90
2024-01-16T03:06:47.533Z,85.80
2024-01-16T03:09:15.513Z,86.00
2024-01-16T03:11:42.844Z,85.80
2024-01-16T03:14:10.850Z,85.60
2024-01-16T03:16:38.572Z,85.40
2024-01-16T03:19:05.875Z,85.30
2024-01-16T03:21:33.475Z,85.40
2024-01-16T03:24:00.925Z,85.20
2024-01-16T03:26:28.523Z,85.50
2024-01-16T03:28:55.936Z,85.70
2024-01-16T03:31:23.385Z,86.00
2024-01-16T03:33:51.529Z,86.20
2024-01-16T03:36:19.553Z,86.40
2024-01-16T03:38:47.015Z,87.60
2024-01-16T03:41:14.559Z,88.10
2024-01-16T03:43:42.286Z,88.20
2024-01-16T03:46:13.000Z,87.80
2024-01-16T03:48:41.103Z,87.60
2024-01-16T03:51:08.642Z,87.70
2024-01-16T03:53:35.864Z,87.60
2024-01-16T03:56:05.532Z,87.40
2024-01-16T03:58:33.411Z,87.50
2024-01-16T04:01:03.371Z,87.50
2024-01-16T04:03:30.676Z,87.60
2024-01-16T04:05:58.036Z,87.90
2024-01-16T04:08:25.414Z,88.00
2024-01-16T04:10:52.747Z,88.10
2024-01-16T04:13:22.117Z,88.20
2024-01-16T04:15:49.747Z,87.90
2024-01-16T04:18:17.063Z,87.60
2024-01-16T04:20:44.430Z,87.30
2024-01-16T04:23:13.008Z,87.40
2024-01-16T04:25:40.617Z,87.40
2024-01-16T04:28:07.809Z,87.20
2024-01-16T04:30:34.978Z,87.20
2024-01-16T04:33:02.379Z,86.90
2024-01-16T04:35:29.721Z,86.60
2024-01-16T04:37:57.160Z,86.60
2024-01-16T04:40:24.396Z,86.10
2024-01-16T04:42:51.594Z,86.10
2024-01-16T04:45:18.847Z,86.20
2024-01-16T04:47:46.289Z,86.10
2024-01-16T04:50:13.702Z,86.40
2024-01-16T04:52:40.940Z,86.00
2024-01-16T04:55:08.729Z,87.00
2024-01-16T04:57:36.067Z,87.50
2024-01-16T05:00:08.371Z,87.60
2024-01-16T05:02:35.921Z,88.00
2024-01-16T05:05:03.582Z,87.30
2024-01-16T05:07:30.828Z,87.50
2024-01-16T05:10:01.141Z,86.90
2024-01-16T05:12:28.407Z,87.00
2024-01-16T05:14:55.680Z,87.10
2024-01-16T05:17:23.228Z,87.50
2024-01-16T05:19:51.927Z,87.90
2024-01-16T05:22:19.109Z,88.00
2024-01-16T05:24:46.380Z,87.80
2024-01-16T05:27:13.757Z,87.40
2024-01-16T05:29:44.621Z,87.10
2024-01-16T05:32:15.526Z,87.00
2024-01-16T05:34:42.842Z,86.90
2024-01-16T05:37:10.040Z,86.50
2024-01-16T05:39:46.022Z,86.20
2024-01-16T05:42:13.558Z,86.40
2024-01-16T05:44:41.448Z,86.40
2024-01-16T05:47:11.776Z,86.50
2024-01-16T05:49:39.222Z,86.60
2024-01-16T05:52:06.793Z,86.50
2024-01-16T05:54:34.109Z,86.60
2024-01-16T05:57:01.384Z,86.60
2024-01-16T05:59:28.662Z,86.60
2024-01-16T06:01:55.945Z,86.70
2024-01-16T06:04:23.250Z,86.60
2024-01-16T06:06:50.508Z,86.60
2024-01-16T06:09:17.968Z,86.80
2024-01-16T06:11:45.212Z,87.10
2024-01-16T06:14:13.920Z,87.30
2024-01-16T06:16:41.244Z,87.40
2024-01-16T06:19:09.401Z,88.50
2024-01-16T06:21:36.704Z,88.60
2024-01-16T06:24:04.038Z,88.70
2024-01-16T06:26:31.254Z,88.70
2024-01-16T06:28:58.426Z,88.60
2024-01-16T06:31:27.377Z,88.50
2024-01-16T06:33:54.694Z,88.40
2024-01-16T06:36:21.945Z,88.30
2024-01-16T06:38:49.091Z,88.20
2024-01-16T06:41:16.247Z,87.90
2024-01-16T06:43:44.437Z,87.80
2024-01-16T06:46:11.792Z,87.50
2024-01-16T06:48:39.418Z,87.60
2024-01-16T06:51:08.980Z,87.70
2024-01-16T06:53:39.214Z,87.70
2024-01-16T06:56:09.599Z,87.50
2024-01-16T06:58:37.130Z,87.20
2024-01-16T07:01:05.320Z,87.20
2024-01-16T07:03:32.460Z,87.20
2024-01-16T07:05:59.737Z,87.20
2024-01-16T07:08:27.120Z,87.30
2024-01-16T07:10:54.624Z,87.50
2024-01-16T07:13:21.920Z,87.70
2024-01-16T07:15:49.832Z,87.90
2024-01-16T07:18:17.118Z,88.20
2024-01-16T07:20:44.426Z,88.50
2024-01-16T07:23:11.538Z,88.50
2024-01-16T07:25:38.653Z,88.60
2024-01-16T07:28:05.799Z,88.40
2024-01-16T07:30:33.009Z,88.00
2024-01-16T07:33:00.397Z,87.60
2024-01-16T07:35:27.669Z,89.10
2024-01-16T07:37:54.768Z,90.30
2024-01-16T07:40:21.972Z,91.80
2024-01-16T07:42:49.121Z,91.70
2024-01-16T07:45:16.251Z,92.10
2024-01-16T07:47:43.482Z,91.50
2024-01-16T07:50:11.498Z,91.60
2024-01-16T07:52:38.715Z,91.90
2024-01-16T07:55:06.195Z,92.20
2024-01-16T07:57:33.382Z,92.00
2024-01-16T08:00:00.578Z,92.20
2024-01-16T08:02:35.493Z,92.10
2024-01-16T08:05:02.798Z,92.80
2024-01-16T08:07:30.020Z,93.10
2024-01-16T08:09:57.405Z,93.30
2024-01-16T08:12:24.848Z,93.30
2024-01-16T08:14:52.219Z,93.10
2024-01-16T08:17:19.792Z,93.10
2024-01-16T08:19:47.051Z,93.20
2024-01-16T08:22:14.260Z,93.20
2024-01-16T08:24:41.490Z,93.20
2024-01-16T08:27:08.688Z,93.10
2024-01-16T08:29:35.873Z,93.20
2024-01-16T08:32:03.116Z,93.30
2024-01-16T08:34:30.463Z,93.30
2024-01-16T08:36:58.397Z,93.30
2024-01-16T08:39:25.907Z,93.40
2024-01-16T08:41:53.313Z,93.40
2024-01-16T08:44:20.565Z,93.60
2024-01-16T08:46:47.724Z,93.70
2024-01-16T08:49:17.939Z,94.10
2024-01-16T08:51:47.139Z,94.50
2024-01-16T08:54:14.284Z,94.70
2024-01-16T08:56:41.509Z,95.10
2024-01-16T08:59:09.506Z,95.40
2024-01-16T09:01:36.779Z,95.30
2024-01-16T09:04:04.977Z,95.40
2024-01-16T09:06:32.428Z,95.20
2024-01-16T09:08:59.715Z,95.00
2024-01-16T09:11:27.013Z,94.60
2024-01-16T09:13:54.150Z,94.30
2024-01-16T09:16:21.285Z,94.90
2024-01-16T09:18:48.609Z,95.10
2024-01-16T09:21:16.246Z,95.60
2024-01-16T09:23:43.712Z,95.70
2024-01-16T09:26:11.938Z,96.00
2024-01-16T09:28:40.229Z,96.60
2024-01-16T09:31:08.049Z,96.70
2024-01-16T09:33:36.114Z,96.90
2024-01-16T09:36:03.556Z,97.30
2024-01-16T09:38:32.284Z,97.30
2024-01-16T09:41:00.520Z,97.10
2024-01-16T09:43:33.050Z,97.20
2024-01-16T09:46:03.678Z,97.40
2024-01-16T09:48:33.398Z,97.30
2024-01-16T09:51:01.228Z,97.50
2024-01-16T09:53:28.610Z,97.60
2024-01-16T09:56:03.129Z,97.70
2024-01-16T09:58:35.649Z,97.80
2024-01-16T10:01:03.292Z,97.80
2024-01-16T10:03:33.127Z,98.10
2024-01-16T10:06:02.522Z,98.00
2024-01-16T10:08:32.971Z,97.90
2024-01-16T10:11:00.996Z,97.90
2024-01-16T10:13:28.485Z,97.80
2024-01-16T10:15:56.819Z,98.00
2024-01-16T10:18:32.384Z,97.80
2024-01-16T10:20:59.944Z,97.70
2024-01-16T10:23:34.090Z,97.70
2024-01-16T10:26:12.789Z,97.80
2024-01-16T10:28:42.705Z,97.80
2024-01-16T10:31:13.021Z,97.90
2024-01-16T10:33:41.289Z,98.00
2024-01-16T10:36:22.061Z,98.20
2024-01-16T10:38:49.702Z,98.30
2024-01-16T10:41:20.749Z,98.50
2024-01-16T10:43:48.203Z,98.60
2024-01-16T10:46:18.063Z,98.70
2024-01-16T10:49:04.026Z,98.70
2024-01-16T10:51:34.155Z,98.70
2024-01-16T10:54:12.334Z,98.80
2024-01-16T10:56:46.501Z,98.80
2024-01-16T10:59:36.365Z,98.80
2024-01-16T11:02:05.424Z,99.10
2024-01-16T11:04:33.408Z,99.80
2024-01-16T11:07:05.640Z,99.90
2024-01-16T11:09:34.167Z,99.90
2024-01-16T11:12:02.681Z,99.90
2024-01-16T11:14:34.480Z,99.90
2024-01-16T11:17:04.354Z,99.90
2024-01-16T11:19:48.287Z,99.90
2024-01-16T11:22:22.503Z,99.70
2024-01-16T11:25:15.971Z,99.10
2024-01-16T11:27:49.176Z,98.70
2024-01-16T11:30:32.638Z,98.00
2024-01-16T11:33:01.734Z,97.90
2024-01-16T11:35:37.926Z,97.80
2024-01-16T11:38:12.615Z,98.00
2024-01-16T11:40:39.850Z,98.20
2024-01-16T11:43:35.164Z,98.20
2024-01-16T11:46:11.359Z,98.40
2024-01-16T11:48:40.736Z,98.40
2024-01-16T11:51:26.221Z,98.50
2024-01-16T11:53:53.656Z,98.60
2024-01-16T11:56:31.016Z,98.60
2024-01-16T11:59:35.400Z,98.70
2024-01-16T12:02:22.435Z,98.90
2024-01-16T12:04:57.858Z,99.10
2024-01-16T12:07:25.370Z,99.00
2024-01-16T12:09:52.656Z,98.80
2024-01-16T12:12:22.314Z,98.70
2024-01-16T12:14:56.401Z,98.60
2024-01-16T12:17:23.949Z,98.50
2024-01-16T12:19:51.677Z,98.30
2024-01-16T12:22:26.086Z,98.30
2024-01-16T12:25:00.061Z,98.20
2024-01-16T12:27:27.634Z,98.30
2024-01-16T12:30:09.650Z,98.30
2024-01-16T12:32:38.337Z,98.30
2024-01-16T12:35:08.996Z,98.20
2024-01-16T12:37:39.318Z,98.20
2024-01-16T12:40:09.436Z,98.10
2024-01-16T12:42:39.344Z,98.00
2024-01-16T12:45:11.821Z,98.00
2024-01-16T12:47:39.336Z,97.60
2024-01-16T12:50:07.605Z,97.20
2024-01-16T12:52:35.147Z,96.90
2024-01-16T12:55:07.397Z,96.70
2024-01-16T12:57:35.545Z,96.60
2024-01-16T13:00:05.962Z,96.20
2024-01-16T13:02:34.689Z,96.00
2024-01-16T13:05:04.568Z,95.80
2024-01-16T13:07:34.005Z,95.30
2024-01-16T13:10:13.444Z,95.10
2024-01-16T13:12:41.202Z,94.90
2024-01-16T13:15:09.143Z,94.60
2024-01-16T13:17:37.134Z,94.60
2024-01-16T13:20:08.401Z,94.30
2024-01-16T13:22:43.420Z,94.00
2024-01-16T13:25:13.569Z,93.90
2024-01-16T13:27:40.752Z,93.90
2024-01-16T13:30:09.077Z,93.90
2024-01-16T13:32:38.674Z,94.10
2024-01-16T13:35:10.245Z,94.20
2024-01-16T13:37:42.240Z,93.60
2024-01-16T13:40:17.147Z,93.30
2024-01-16T13:42:44.733Z,92.30
2024-01-16T13:45:14.882Z,91.30
2024-01-16T13:47:46.099Z,91.20
2024-01-16T13:50:15.700Z,90.90
2024-01-16T13:52:43.019Z,90.60
2024-01-16T13:55:11.205Z,90.40
2024-01-16T13:57:43.124Z,90.20
2024-01-16T14:00:17.075Z,90.00
2024-01-16T14:02:49.267Z,89.80
2024-01-16T14:05:19.869Z,89.40
2024-01-16T14:07:54.154Z,89.20
2024-01-16T14:10:26.196Z,88.00
2024-01-16T14:12:54.112Z,87.90
2024-01-16T14:15:26.673Z,87.10
2024-01-16T14:17:58.031Z,86.60
2024-01-16T14:20:29.643Z,86.20
2024-01-16T14:22:58.892Z,85.80
2024-01-16T14:25:26.121Z,84.60
2024-01-16T14:28:07.768Z,84.30
2024-01-16T14:30:37.110Z,84.30
2024-01-16T14:33:14.013Z,83.00
2024-01-16T14:35:42.030Z,84.10
2024-01-16T14:38:09.312Z,85.20
2024-01-16T14:40:36.635Z,86.70
2024-01-16T14:43:06.572Z,87.30
2024-01-16T14:45:33.968Z,86.60
2024-01-16T14:48:01.429Z,86.60
2024-01-16T14:50:31.505Z,86.40
2024-01-16T14:53:00.051Z,86.50
2024-01-16T14:55:27.810Z,86.50
2024-01-16T14:58:01.059Z,86.50
2024-01-16T15:00:28.484Z,86.70
2024-01-16T15:02:55.676Z,86.80
2024-01-16T15:05:24.161Z,86.90
2024-01-16T15:07:55.190Z,86.70
2024-01-16T15:10:22.551Z,86.60
2024-01-16T15:12:50.063Z,86.50
2024-01-16T15:15:17.514Z,86.50
2024-01-16T15:17:45.916Z,86.50
2024-01-16T15:20:13.652Z,86.30
2024-01-16T15:22:47.239Z,86.30
2024-01-16T15:25:17.598Z,86.20
2024-01-16T15:27:49.136Z,86.20
2024-01-16T15:30:16.704Z,86.20
2024-01-16T15:32:44.127Z,86.40
2024-01-16T15:35:12.544Z,86.50
2024-01-16T15:37:40.049Z,86.70
2024-01-16T15:40:08.449Z,86.90
2024-01-16T15:42:40.448Z,87.10
2024-01-16T15:45:10.596Z,87.40
2024-01-16T15:47:38.071Z,87.60
2024-01-16T15:50:06.744Z,87.80
2024-01-16T15:52:34.272Z,88.20
2024-01-16T15:55:02.551Z,88.10
2024-01-16T15:57:30.253Z,88.30
2024-01-16T15:59:57.664Z,88.20
2024-01-16T16:02:25.132Z,88.10
2024-01-16T16:04:52.298Z,88.10
2024-01-16T16:07:19.577Z,88.10
2024-01-16T16:09:46.821Z,88.20
2024-01-16T16:12:15.007Z,88.20
2024-01-16T16:14:43.478Z,88.20
2024-01-16T16:17:10.560Z,88.30
2024-01-16T16:19:38.002Z,88.40
2024-01-16T16:22:06.247Z,88.40
2024-01-16T16:24:34.665Z,88.50
2024-01-16T16:27:01.902Z,88.50
2024-01-16T16:29:29.117Z,88.50
2024-01-16T16:31:57.904Z,88.50
2024-01-16T16:34:25.589Z,88.60
2024-01-16T16:36:52.959Z,88.50
2024-01-16T16:39:23.608Z,88.60
2024-01-16T16:41:51.572Z,88.60
2024-01-16T16:44:18.799Z,88.70
2024-01-16T16:46:45.954Z,88.70
2024-01-16T16:49:13.234Z,88.70
2024-01-16T16:51:43.318Z,88.90
2024-01-16T16:54:12.069Z,88.90
2024-01-16T16:56:41.504Z,89.00
2024-01-16T16:59:08.815Z,89.20
2024-01-16T17:01:39.320Z,89.30
2024-01-16T17:04:07.868Z,89.50
2024-01-16T17:06:35.519Z,89.50
2024-01-16T17:09:03.124Z,89.60
2024-01-16T17:11:30.535Z,89.60
2024-01-16T17:13:57.936Z,89.70
2024-01-16T17:16:29.669Z,89.70
2024-01-16T17:18:56.995Z,89.90
2024-01-16T17:21:24.535Z,90.10
2024-01-16T17:23:51.937Z,90.10
2024-01-16T17:26:19.889Z,90.10
2024-01-16T17:28:47.199Z,90.20
2024-01-16T17:31:14.500Z,90.10
2024-01-16T17:33:44.230Z,90.20
2024-01-16T17:36:12.536Z,90.20
2024-01-16T17:38:43.010Z,90.20
2024-01-16T17:41:12.160Z,90.10
2024-01-16T17:43:40.143Z,90.10
2024-01-16T17:46:07.947Z,90.20
2024-01-16T17:48:35.543Z,90.20
2024-01-16T17:51:03.086Z,90.30
2024-01-16T17:53:30.403Z,90.30
2024-01-16T17:55:57.770Z,90.30
2024-01-16T17:58:26.910Z,90.30
2024-01-16T18:00:54.489Z,90.30
2024-01-16T18:03:32.597Z,90.30
2024-01-16T18:06:09.050Z,90.30
2024-01-16T18:08:41.188Z,90.30
2024-01-16T18:11:08.834Z,90.50
2024-01-16T18:13:38.635Z,90.50
2024-01-16T18:16:07.996Z,90.60
2024-01-16T18:18:35.397Z,90.80
2024-01-16T18:21:03.017Z,90.80
2024-01-16T18:23:30.517Z,90.90
2024-01-16T18:26:00.638Z,90.90
2024-01-16T18:28:29.084Z,90.90
2024-01-16T18:30:57.731Z,90.90
2024-01-16T18:33:25.450Z,90.90
2024-01-16T18:35:58.824Z,90.90
2024-01-16T18:38:28.461Z,90.90
2024-01-16T18:41:00.200Z,90.80
2024-01-16T18:43:29.084Z,90.70
2024-01-16T18:45:57.675Z,90.70
2024-01-16T18:48:25.258Z,90.70
2024-01-16T18:50:55.547Z,90.80
2024-01-16T18:53:23.195Z,90.90
2024-01-16T18:55:53.466Z,90.90
2024-01-16T18:58:22.178Z,90.90
2024-01-16T19:00:52.872Z,91.00
2024-01-16T19:03:20.678Z,91.10
2024-01-16T19:05:48.474Z,91.00
2024-01-16T19:08:25.051Z,91.10
2024-01-16T19:10:53.412Z,91.20
2024-01-16T19:13:25.025Z,91.20
2024-01-16T19:15:53.326Z,91.50
2024-01-16T19:18:20.855Z,91.70
2024-01-16T19:20:48.318Z,91.70
2024-01-16T19:23:15.688Z,91.70
2024-01-16T19:25:43.007Z,91.90
2024-01-16T19:28:10.376Z,91.90
2024-01-16T19:30:37.613Z,92.10
2024-01-16T19:33:07.218Z,92.30
2024-01-16T19:35:35.945Z,92.50
2024-01-16T19:38:03.337Z,92.60
2024-01-16T19:40:30.529Z,93.00
2024-01-16T19:43:03.094Z,93.20
2024-01-16T19:45:30.895Z,93.20
2024-01-16T19:47:58.415Z,93.30
2024-01-16T19:50:25.846Z,93.50
2024-01-16T19:52:56.616Z,93.70
2024-01-16T19:55:25.534Z,93.60
2024-01-16T19:57:54.364Z,93.70
2024-01-16T20:00:21.925Z,93.90
2024-01-16T20:02:50.434Z,93.80
2024-01-16T20:05:18.222Z,94.10
2024-01-16T20:07:47.217Z,94.10
2024-01-16T20:10:18.650Z,94.60
2024-01-16T20:12:49.362Z,95.00
2024-01-16T20:15:21.697Z,94.80
2024-01-16T20:17:51.842Z,95.00
2024-01-16T20:20:20.117Z,95.30
2024-01-16T20:22:48.224Z,95.60
2024-01-16T20:25:15.838Z,95.70
2024-01-16T20:27:44.171Z,95.90
2024-01-16T20:30:14.074Z,95.80
2024-01-16T20:32:45.636Z,95.90
2024-01-16T20:35:14.384Z,95.80
2024-01-16T20:37:45.194Z,95.80
2024-01-16T20:40:12.878Z,95.90
2024-01-16T20:42:40.334Z,95.90
2024-01-16T20:45:10.393Z,96.00
2024-01-16T20:47:41.990Z,95.90
2024-01-16T20:50:11.142Z,96.00
2024-01-16T20:52:38.753Z,96.00
2024-01-16T20:55:08.390Z,96.00
2024-01-16T20:57:36.472Z,96.10
2024-01-16T21:00:14.314Z,96.10
2024-01-16T21:02:42.358Z,96.20
2024-01-16T21:05:09.958Z,96.00
2024-01-16T21:07:37.746Z,96.00
2024-01-16T21:10:05.581Z,96.00
2024-01-16T21:12:33.280Z,95.90
2024-01-16T21:15:00.747Z,95.90
2024-01-16T21:17:28.387Z,95.80
2024-01-16T21:19:55.779Z,95.70
2024-01-16T21:22:32.962Z,95.70
2024-01-16T21:25:06.004Z,95.70
2024-01-16T21:27:34.264Z,95.60
2024-01-16T21:30:02.084Z,95.70
2024-01-16T21:32:29.538Z,95.90
2024-01-16T21:34:56.712Z,95.90
2024-01-16T21:37:23.823Z,96.10
2024-01-16T21:39:51.000Z,96.20
2024-01-16T21:42:18.235Z,96.20
2024-01-16T21:44:48.964Z,96.20
2024-01-16T21:47:16.951Z,96.30
2024-01-16T21:49:48.403Z,96.30
2024-01-16T21:52:17.048Z,96.40
2024-01-16T21:54:44.203Z,96.30
2024-01-16T21:57:11.330Z,96.20
2024-01-16T21:59:38.579Z,96.20
2024-01-16T22:02:08.187Z,96.10
2024-01-16T22:04:36.959Z,95.90
2024-01-16T22:07:04.807Z,95.80
2024-01-16T22:09:32.608Z,95.70
2024-01-16T22:11:59.935Z,95.50
2024-01-16T22:14:27.185Z,95.20
2024-01-16T22:16:55.210Z,95.00
2024-01-16T22:19:23.467Z,94.90
2024-01-16T22:21:53.636Z,94.70
2024-01-16T22:24:20.855Z,94.60
2024-01-16T22:26:48.072Z,94.40
2024-01-16T22:29:15.327Z,94.30
2024-01-16T22:31:43.235Z,94.10
2024-01-16T22:34:10.765Z,94.00
2024-01-16T22:36:41.686Z,93.90
2024-01-16T22:39:17.711Z,93.70
2024-01-16T22:41:49.043Z,93.20
2024-01-16T22:44:16.840Z,93.00
2024-01-16T22:46:44.837Z,92.60
2024-01-16T22:49:13.066Z,92.80
2024-01-16T22:51:41.185Z,92.30
2024-01-16T22:54:08.493Z,92.00
2024-01-16T22:56:35.843Z,91.90
2024-01-16T22:59:04.600Z,91.20
2024-01-16T23:01:32.486Z,91.00
2024-01-16T23:04:02.429Z,90.60
2024-01-16T23:06:29.981Z,90.40
2024-01-16T23:08:58.977Z,90.10
2024-01-16T23:11:27.528Z,89.70
2024-01-16T23:13:55.856Z,89.30
2024-01-16T23:16:23.259Z,89.00
2024-01-16T23:18:50.734Z,89.20
2024-01-16T23:21:20.191Z,88.30
2024-01-16T23:23:49.235Z,88.30
2024-01-16T23:26:16.674Z,87.70
2024-01-16T23:28:44.309Z,87.90
2024-01-16T23:31:13.101Z,87.80
2024-01-16T23:33:41.545Z,87.90
2024-01-16T23:36:09.072Z,87.50
2024-01-16T23:38:39.019Z,87.20
2024-01-16T23:41:12.994Z,87.30
2024-01-16T23:43:40.190Z,87.40
2024-01-16T23:46:11.596Z,87.50
2024-01-16T23:48:39.256Z,87.50
2024-01-16T23:51:06.824Z,87.50
2024-01-16T23:53:34.049Z,87.60
2024-01-16T23:56:01.346Z,87.70
2024-01-16T23:58:28.511Z,87.60
